createdAt,value
2023-09-20T00:01:05.690Z,99826.53
2023-09-20T00:03:32.772Z,99827.94
2023-09-20T00:06:01.616Z,99819.88
2023-09-20T00:08:28.971Z,99818.16
2023-09-20T00:10:55.384Z,99811.06
2023-09-20T00:13:21.716Z,99816.44
2023-09-20T00:15:48.518Z,99808.38
2023-09-20T00:18:15.061Z,99809.13
2023-09-20T00:20:41.720Z,99794.16
2023-09-20T00:23:08.455Z,99791.59
2023-09-20T00:25:34.995Z,99795.78
2023-09-20T00:28:01.310Z,99793.22
2023-09-20T00:30:27.566Z,99790.22
2023-09-20T00:32:54.057Z,99791.72
2023-09-20T00:35:20.596Z,99790.38
2023-09-20T00:37:47.464Z,99785.66
2023-09-20T00:40:25.567Z,99790.03
2023-09-20T00:42:58.580Z,99788.25
2023-09-20T00:45:25.301Z,99789.84
2023-09-20T00:47:57.452Z,99784.91
2023-09-20T00:50:27.984Z,99784.91
2023-09-20T00:52:56.789Z,99786.19
2023-09-20T00:55:26.992Z,99785.22
2023-09-20T00:58:05.120Z,99778.44
2023-09-20T01:00:34.027Z,99788.13
2023-09-20T01:03:02.500Z,99790.28
2023-09-20T01:05:30.038Z,99779.25
2023-09-20T01:07:57.757Z,99793.56
2023-09-20T01:10:25.613Z,99797.09
2023-09-20T01:12:54.983Z,99798.38
2023-09-20T01:15:25.923Z,99795.91
2023-09-20T01:17:58.022Z,99800.41
2023-09-20T01:20:25.824Z,99803.09
2023-09-20T01:22:55.173Z,99794.94
2023-09-20T01:25:23.624Z,99790.63
2023-09-20T01:27:51.883Z,99789.97
2023-09-20T01:30:18.797Z,99799.19
2023-09-20T01:32:45.434Z,99797.50
2023-09-20T01:35:12.865Z,99806.31
2023-09-20T01:37:39.700Z,99796.19
2023-09-20T01:40:16.168Z,99789.44
2023-09-20T01:42:44.653Z,99790.19
2023-09-20T01:45:16.020Z,99789.31
2023-09-20T01:47:46.916Z,99785.88
2023-09-20T01:50:14.979Z,99788.66
2023-09-20T01:52:42.880Z,99788.78
2023-09-20T01:55:12.823Z,99783.06
2023-09-20T01:57:39.162Z,99779.44
2023-09-20T02:00:17.823Z,99772.31
2023-09-20T02:02:45.764Z,99771.25
2023-09-20T02:05:18.260Z,99770.50
2023-09-20T02:07:47.394Z,99768.47
2023-09-20T02:10:15.162Z,99771.38
2023-09-20T02:12:45.660Z,99760.19
2023-09-20T02:15:12.186Z,99759.53
2023-09-20T02:17:39.231Z,99766.16
2023-09-20T02:20:13.626Z,99762.78
2023-09-20T02:22:41.281Z,99772.47
2023-09-20T02:25:12.243Z,99756.97
2023-09-20T02:27:40.844Z,99777.28
2023-09-20T02:30:17.777Z,99775.66
2023-09-20T02:32:44.789Z,99779.34
2023-09-20T02:35:11.489Z,99772.22
2023-09-20T02:37:41.746Z,99779.34
2023-09-20T02:40:08.477Z,99780.81
2023-09-20T02:42:43.911Z,99775.66
2023-09-20T02:45:11.908Z,99767.63
2023-09-20T02:47:38.335Z,99769.44
2023-09-20T02:50:06.049Z,99768.47
2023-09-20T02:52:35.565Z,99765.78
2023-09-20T02:55:01.966Z,99764.06
2023-09-20T02:57:30.802Z,99763.94
2023-09-20T02:59:59.646Z,99756.56
2023-09-20T03:02:26.254Z,99755.88
2023-09-20T03:04:54.478Z,99744.50
2023-09-20T03:07:22.054Z,99741.06
2023-09-20T03:09:48.574Z,99736.97
2023-09-20T03:12:15.786Z,99748.38
2023-09-20T03:14:42.854Z,99745.69
2023-09-20T03:17:09.847Z,99744.81
2023-09-20T03:19:36.563Z,99743.94
2023-09-20T03:22:03.261Z,99740.50
2023-09-20T03:24:30.721Z,99734.50
2023-09-20T03:26:57.100Z,99735.44
2023-09-20T03:29:24.932Z,99728.34
2023-09-20T03:31:51.357Z,99717.72
2023-09-20T03:34:17.902Z,99721.25
2023-09-20T03:36:44.493Z,99727.59
2023-09-20T03:39:12.695Z,99729.41
2023-09-20T03:41:39.766Z,99732.31
2023-09-20T03:44:07.296Z,99722.81
2023-09-20T03:46:33.670Z,99725.41
2023-09-20T03:49:00.628Z,99715.75
2023-09-20T03:51:26.956Z,99721.22
2023-09-20T03:53:53.357Z,99717.75
2023-09-20T03:56:19.668Z,99714.22
2023-09-20T03:58:46.220Z,99723.34
2023-09-20T04:01:13.132Z,99713.78
2023-09-20T04:03:41.710Z,99725.28
2023-09-20T04:06:08.225Z,99724.38
2023-09-20T04:08:34.661Z,99713.78
2023-09-20T04:11:01.069Z,99720.09
2023-09-20T04:13:27.438Z,99714.94
2023-09-20T04:15:53.799Z,99715.88
2023-09-20T04:18:20.162Z,99709.56
2023-09-20T04:20:47.375Z,99709.56
2023-09-20T04:23:14.581Z,99709.47
2023-09-20T04:25:41.338Z,99706.97
2023-09-20T04:28:10.123Z,99703.34
2023-09-20T04:30:39.711Z,99705.13
2023-09-20T04:33:08.132Z,99705.13
2023-09-20T04:35:37.486Z,99706.97
2023-09-20T04:38:04.056Z,99700.81
2023-09-20T04:40:30.389Z,99698.44
2023-09-20T04:42:57.110Z,99698.97
2023-09-20T04:45:23.554Z,99691.91
2023-09-20T04:47:50.986Z,99698.13
2023-09-20T04:50:18.014Z,99703.34
2023-09-20T04:52:46.517Z,99699.91
2023-09-20T04:55:12.905Z,99707.81
2023-09-20T04:57:39.213Z,99711.19
2023-09-20T05:00:08.698Z,99704.97
2023-09-20T05:02:35.222Z,99699.59
2023-09-20T05:05:01.959Z,99703.78
2023-09-20T05:07:28.409Z,99706.34
2023-09-20T05:09:54.669Z,99708.09
2023-09-20T05:12:21.058Z,99702.91
2023-09-20T05:14:49.572Z,99704.66
2023-09-20T05:17:15.929Z,99709.16
2023-09-20T05:19:42.508Z,99710.22
2023-09-20T05:22:08.907Z,99713.66
2023-09-20T05:24:35.219Z,99710.00
2023-09-20T05:27:02.400Z,99712.38
2023-09-20T05:29:28.732Z,99712.22
2023-09-20T05:31:55.247Z,99704.34
2023-09-20T05:34:22.316Z,99700.22
2023-09-20T05:36:54.259Z,99702.19
2023-09-20T05:39:20.640Z,99701.50
2023-09-20T05:41:47.018Z,99704.19
2023-09-20T05:44:14.049Z,99691.06
2023-09-20T05:46:40.430Z,99700.66
2023-09-20T05:49:07.171Z,99695.16
2023-09-20T05:51:33.656Z,99700.44
2023-09-20T05:54:00.020Z,99703.03
2023-09-20T05:56:26.997Z,99698.31
2023-09-20T05:58:54.826Z,99707.13
2023-09-20T06:01:21.765Z,99714.97
2023-09-20T06:03:48.512Z,99705.94
2023-09-20T06:06:15.334Z,99714.75
2023-09-20T06:08:43.465Z,99702.78
2023-09-20T06:11:10.450Z,99710.41
2023-09-20T06:13:37.957Z,99711.94
2023-09-20T06:16:07.255Z,99712.78
2023-09-20T06:18:34.941Z,99712.78
2023-09-20T06:21:01.655Z,99718.06
2023-09-20T06:23:28.057Z,99710.09
2023-09-20T06:25:54.628Z,99722.28
2023-09-20T06:28:21.031Z,99723.88
2023-09-20T06:30:48.328Z,99708.84
2023-09-20T06:33:15.437Z,99720.03
2023-09-20T06:35:42.542Z,99715.81
2023-09-20T06:38:10.458Z,99714.97
2023-09-20T06:40:40.345Z,99716.59
2023-09-20T06:43:08.765Z,99718.75
2023-09-20T06:45:36.094Z,99719.53
2023-09-20T06:48:03.749Z,99718.34
2023-09-20T06:50:31.169Z,99713.50
2023-09-20T06:52:57.623Z,99703.09
2023-09-20T06:55:26.564Z,99712.25
2023-09-20T06:58:05.099Z,99719.88
2023-09-20T07:00:39.845Z,99710.00
2023-09-20T07:03:06.598Z,99705.38
2023-09-20T07:05:33.177Z,99706.13
2023-09-20T07:08:02.492Z,99696.25
2023-09-20T07:10:33.253Z,99699.91
2023-09-20T07:12:59.771Z,99702.91
2023-09-20T07:15:26.229Z,99693.91
2023-09-20T07:18:09.293Z,99696.19
2023-09-20T07:20:38.044Z,99650.13
2023-09-20T07:23:04.839Z,99698.41
2023-09-20T07:25:32.237Z,99697.03
2023-09-20T07:28:00.988Z,99692.97
2023-09-20T07:30:32.386Z,99694.56
2023-09-20T07:33:11.282Z,99698.13
2023-09-20T07:35:49.313Z,99688.75
2023-09-20T07:38:28.648Z,99684.88
2023-09-20T07:41:16.468Z,99694.97
2023-09-20T07:43:46.385Z,99697.00
2023-09-20T07:46:15.241Z,99693.53
2023-09-20T07:48:50.179Z,99700.28
2023-09-20T07:51:21.224Z,99698.72
2023-09-20T07:53:54.540Z,99701.72
2023-09-20T07:56:21.525Z,99691.19
2023-09-20T07:58:48.336Z,99702.13
2023-09-20T08:01:21.239Z,99694.56
2023-09-20T08:03:56.006Z,99691.91
2023-09-20T08:06:24.843Z,99697.59
2023-09-20T08:08:51.316Z,99676.56
2023-09-20T08:11:20.706Z,99694.13
2023-09-20T08:14:00.316Z,99682.16
2023-09-20T08:16:47.395Z,99671.75
2023-09-20T08:19:20.270Z,99679.78
2023-09-20T08:21:46.730Z,99685.22
2023-09-20T08:24:31.830Z,99680.41
2023-09-20T08:27:19.507Z,99673.31
2023-09-20T08:30:05.553Z,99688.53
2023-09-20T08:32:50.354Z,99676.41
2023-09-20T08:35:35.203Z,99681.66
2023-09-20T08:38:20.046Z,99690.22
2023-09-20T08:41:05.265Z,99668.06
2023-09-20T08:43:50.007Z,99688.41
2023-09-20T08:46:36.867Z,99682.13
2023-09-20T08:49:23.568Z,99690.97
2023-09-20T08:52:23.502Z,99676.59
2023-09-20T08:55:09.287Z,99667.44
2023-09-20T08:57:55.196Z,99679.69
2023-09-20T09:00:26.601Z,99680.66
2023-09-20T09:02:55.879Z,99679.19
2023-09-20T09:05:24.379Z,99673.84
2023-09-20T09:07:50.999Z,99681.50
2023-09-20T09:10:18.206Z,99658.69
2023-09-20T09:12:45.008Z,99665.13
2023-09-20T09:15:13.073Z,99657.72
2023-09-20T09:17:40.811Z,99656.19
2023-09-20T09:20:11.736Z,99656.78
2023-09-20T09:22:39.679Z,99646.69
2023-09-20T09:25:14.008Z,99649.41
2023-09-20T09:27:41.605Z,99649.03
2023-09-20T09:30:13.126Z,99646.84
2023-09-20T09:32:41.123Z,99646.19
2023-09-20T09:35:08.535Z,99644.22
2023-09-20T09:37:36.579Z,99626.38
2023-09-20T09:40:05.951Z,99636.19
2023-09-20T09:42:32.960Z,99640.34
2023-09-20T09:44:59.837Z,99636.78
2023-09-20T09:47:26.425Z,99643.06
2023-09-20T09:49:53.995Z,99629.75
2023-09-20T09:52:24.540Z,99621.59
2023-09-20T09:54:54.171Z,99623.78
2023-09-20T09:57:20.734Z,99613.00
2023-09-20T09:59:47.921Z,99615.28
2023-09-20T10:02:22.323Z,99622.22
2023-09-20T10:04:51.440Z,99630.88
2023-09-20T10:07:23.552Z,99615.25
2023-09-20T10:09:55.587Z,99623.94
2023-09-20T10:12:23.894Z,99622.38
2023-09-20T10:14:51.328Z,99626.38
2023-09-20T10:17:21.740Z,99614.91
2023-09-20T10:19:52.042Z,99608.06
2023-09-20T10:22:22.769Z,99623.47
2023-09-20T10:25:01.953Z,99623.59
2023-09-20T10:27:35.910Z,99618.72
2023-09-20T10:30:10.213Z,99605.91
2023-09-20T10:32:48.986Z,99606.91
2023-09-20T10:35:22.570Z,99602.75
2023-09-20T10:38:10.616Z,99605.56
2023-09-20T10:40:56.558Z,99601.59
2023-09-20T10:43:44.797Z,99591.34
2023-09-20T10:46:14.017Z,99595.31
2023-09-20T10:48:51.120Z,99599.09
2023-09-20T10:51:43.399Z,99596.38
2023-09-20T10:54:30.823Z,99591.25
2023-09-20T10:57:04.092Z,99588.16
2023-09-20T10:59:32.129Z,99595.38
2023-09-20T11:02:06.388Z,99593.28
2023-09-20T11:04:34.056Z,99586.53
2023-09-20T11:07:03.228Z,99587.34
2023-09-20T11:09:34.891Z,99582.03
2023-09-20T11:12:07.986Z,99588.00
2023-09-20T11:14:41.948Z,99589.00
2023-09-20T11:17:13.326Z,99578.00
2023-09-20T11:19:40.344Z,99579.69
2023-09-20T11:22:06.845Z,99570.94
2023-09-20T11:24:35.350Z,99563.78
2023-09-20T11:27:01.706Z,99561.75
2023-09-20T11:29:28.183Z,99569.22
2023-09-20T11:31:59.224Z,99568.41
2023-09-20T11:34:26.666Z,99567.19
2023-09-20T11:36:55.116Z,99562.28
2023-09-20T11:39:31.132Z,99576.25
2023-09-20T11:42:02.436Z,99551.78
2023-09-20T11:44:30.090Z,99540.00
2023-09-20T11:46:59.534Z,99543.06
2023-09-20T11:49:27.271Z,99544.25
2023-09-20T11:51:54.648Z,99543.38
2023-09-20T11:54:38.125Z,99531.06
2023-09-20T11:57:04.829Z,99527.03
2023-09-20T11:59:41.413Z,99540.47
2023-09-20T12:02:09.605Z,99530.31
2023-09-20T12:04:37.119Z,99534.66
2023-09-20T12:07:03.540Z,99526.53
2023-09-20T12:09:30.097Z,99539.31
2023-09-20T12:11:56.473Z,99535.97
2023-09-20T12:14:22.994Z,99537.13
2023-09-20T12:16:49.520Z,99513.97
2023-09-20T12:19:19.281Z,99524.44
2023-09-20T12:21:45.786Z,99523.97
2023-09-20T12:24:13.245Z,99515.66
2023-09-20T12:26:40.716Z,99511.84
2023-09-20T12:29:07.423Z,99508.31
2023-09-20T12:31:33.905Z,99488.63
2023-09-20T12:34:01.981Z,99481.91
2023-09-20T12:36:31.797Z,99481.59
2023-09-20T12:38:58.375Z,99475.72
2023-09-20T12:41:26.862Z,99471.28
2023-09-20T12:43:53.529Z,99455.25
2023-09-20T12:46:20.252Z,99454.59
2023-09-20T12:48:46.857Z,99452.34
2023-09-20T12:51:13.431Z,99443.50
2023-09-20T12:53:40.790Z,99445.91
2023-09-20T12:56:10.155Z,99435.31
2023-09-20T12:58:36.510Z,99429.88
2023-09-20T13:01:02.866Z,99426.66
2023-09-20T13:03:30.450Z,99413.34
2023-09-20T13:05:57.632Z,99422.44
2023-09-20T13:08:25.985Z,99411.97
2023-09-20T13:10:53.317Z,99407.38
2023-09-20T13:13:23.627Z,99407.72
2023-09-20T13:15:50.420Z,99388.03
2023-09-20T13:18:17.731Z,99390.34
2023-09-20T13:20:44.654Z,99389.31
2023-09-20T13:23:12.115Z,99380.47
2023-09-20T13:25:43.723Z,99375.97
2023-09-20T13:28:10.448Z,99375.31
2023-09-20T13:30:38.579Z,99376.38
2023-09-20T13:33:06.700Z,99378.06
2023-09-20T13:35:35.819Z,99371.53
2023-09-20T13:38:04.209Z,99354.72
2023-09-20T13:40:31.800Z,99367.84
2023-09-20T13:43:01.490Z,99348.19
2023-09-20T13:45:28.011Z,99365.56
2023-09-20T13:47:55.092Z,99353.81
2023-09-20T13:50:22.588Z,99353.81
2023-09-20T13:52:49.193Z,99345.91
2023-09-20T13:55:16.329Z,99341.00
2023-09-20T13:57:44.475Z,99339.66
2023-09-20T14:00:14.700Z,99343.81
2023-09-20T14:02:42.161Z,99344.03
2023-09-20T14:05:17.394Z,99342.78
2023-09-20T14:07:46.035Z,99343.03
2023-09-20T14:10:17.810Z,99334.84
2023-09-20T14:12:46.337Z,99339.63
2023-09-20T14:15:20.392Z,99326.66
2023-09-20T14:17:48.570Z,99317.34
2023-09-20T14:20:24.973Z,99312.13
2023-09-20T14:22:55.933Z,99316.03
2023-09-20T14:25:24.176Z,99311.63
2023-09-20T14:27:56.979Z,99301.97
2023-09-20T14:30:24.051Z,99298.84
2023-09-20T14:32:56.917Z,99303.50
2023-09-20T14:35:23.763Z,99298.88
2023-09-20T14:37:52.691Z,99302.06
2023-09-20T14:40:23.673Z,99302.06
2023-09-20T14:42:58.445Z,99291.06
2023-09-20T14:45:27.255Z,99295.75
2023-09-20T14:47:55.282Z,99286.91
2023-09-20T14:50:23.097Z,99284.50
2023-09-20T14:52:50.506Z,99283.66
2023-09-20T14:55:19.785Z,99280.00
2023-09-20T14:57:48.149Z,99272.06
2023-09-20T15:00:19.581Z,99276.19
2023-09-20T15:02:50.892Z,99263.63
2023-09-20T15:05:20.254Z,99266.56
2023-09-20T15:07:54.729Z,99268.56
2023-09-20T15:10:22.501Z,99270.00
2023-09-20T15:12:51.474Z,99261.69
2023-09-20T15:15:18.172Z,99258.13
2023-09-20T15:17:44.994Z,99262.75
2023-09-20T15:20:12.186Z,99249.47
2023-09-20T15:22:38.720Z,99247.53
2023-09-20T15:25:05.355Z,99256.97
2023-09-20T15:27:32.440Z,99240.38
2023-09-20T15:29:59.988Z,99237.66
2023-09-20T15:32:27.357Z,99244.88
2023-09-20T15:34:57.896Z,99239.28
2023-09-20T15:37:25.772Z,99226.91
2023-09-20T15:39:52.752Z,99233.84
2023-09-20T15:42:19.586Z,99221.53
2023-09-20T15:44:50.693Z,99231.44
2023-09-20T15:47:21.308Z,99220.44
2023-09-20T15:49:47.950Z,99208.97
2023-09-20T15:52:19.220Z,99216.81
2023-09-20T15:54:45.625Z,99210.53
2023-09-20T15:57:12.715Z,99210.09
2023-09-20T15:59:43.201Z,99205.50
2023-09-20T16:02:10.000Z,99218.13
2023-09-20T16:04:37.032Z,99204.88
2023-09-20T16:07:05.808Z,99204.38
2023-09-20T16:09:32.142Z,99201.81
2023-09-20T16:11:59.375Z,99197.06
2023-09-20T16:14:25.964Z,99198.94
2023-09-20T16:16:52.534Z,99202.31
2023-09-20T16:19:20.902Z,99195.50
2023-09-20T16:21:47.382Z,99201.13
2023-09-20T16:24:13.746Z,99187.69
2023-09-20T16:26:41.958Z,99185.31
2023-09-20T16:29:11.798Z,99187.28
2023-09-20T16:31:39.426Z,99182.53
2023-09-20T16:34:07.444Z,99185.06
2023-09-20T16:36:33.923Z,99185.34
2023-09-20T16:39:00.334Z,99194.13
2023-09-20T16:41:26.709Z,99188.66
2023-09-20T16:43:53.041Z,99184.38
2023-09-20T16:46:19.407Z,99187.13
2023-09-20T16:48:45.834Z,99188.06
2023-09-20T16:51:12.278Z,99183.22
2023-09-20T16:53:38.636Z,99187.09
2023-09-20T16:56:05.640Z,99183.50
2023-09-20T16:58:33.903Z,99173.06
2023-09-20T17:01:00.378Z,99181.63
2023-09-20T17:03:26.941Z,99180.88
2023-09-20T17:05:53.439Z,99184.16
2023-09-20T17:08:25.801Z,99178.09
2023-09-20T17:10:52.353Z,99181.75
2023-09-20T17:13:18.703Z,99182.97
2023-09-20T17:15:45.033Z,99170.94
2023-09-20T17:18:11.552Z,99180.28
2023-09-20T17:20:40.113Z,99179.97
2023-09-20T17:23:06.539Z,99178.19
2023-09-20T17:25:32.928Z,99178.84
2023-09-20T17:28:03.920Z,99176.03
2023-09-20T17:30:30.974Z,99166.66
2023-09-20T17:32:59.151Z,99162.03
2023-09-20T17:35:25.671Z,99160.50
2023-09-20T17:37:53.724Z,99174.19
2023-09-20T17:40:21.051Z,99179.75
2023-09-20T17:42:49.346Z,99178.16
2023-09-20T17:45:18.022Z,99176.72
2023-09-20T17:47:45.453Z,99177.00
2023-09-20T17:50:13.915Z,99180.69
2023-09-20T17:52:42.120Z,99178.25
2023-09-20T17:55:09.135Z,99173.84
2023-09-20T17:57:38.416Z,99185.31
2023-09-20T18:00:12.593Z,99188.84
2023-09-20T18:02:39.863Z,99187.94
2023-09-20T18:05:07.750Z,99185.19
2023-09-20T18:07:34.597Z,99187.28
2023-09-20T18:10:01.809Z,99181.56
2023-09-20T18:12:28.205Z,99191.19
2023-09-20T18:14:54.871Z,99189.41
2023-09-20T18:17:21.359Z,99190.34
2023-09-20T18:19:47.749Z,99192.00
2023-09-20T18:22:14.694Z,99197.19
2023-09-20T18:24:46.610Z,99181.19
2023-09-20T18:27:15.301Z,99181.59
2023-09-20T18:29:41.688Z,99190.09
2023-09-20T18:32:08.902Z,99190.72
2023-09-20T18:34:35.266Z,99193.19
2023-09-20T18:37:04.538Z,99199.09
2023-09-20T18:39:30.894Z,99198.16
2023-09-20T18:42:00.130Z,99196.72
2023-09-20T18:44:26.840Z,99190.75
2023-09-20T18:46:53.508Z,99199.06
2023-09-20T18:49:21.013Z,99188.56
2023-09-20T18:51:47.410Z,99189.91
2023-09-20T18:54:14.321Z,99191.03
2023-09-20T18:56:42.062Z,99193.25
2023-09-20T18:59:08.931Z,99185.91
2023-09-20T19:01:35.328Z,99182.75
2023-09-20T19:04:02.167Z,99174.78
2023-09-20T19:06:30.873Z,99186.66
2023-09-20T19:08:58.053Z,99176.38
2023-09-20T19:11:27.187Z,99176.63
2023-09-20T19:13:53.709Z,99184.22
2023-09-20T19:16:21.534Z,99173.13
2023-09-20T19:18:58.224Z,99178.72
2023-09-20T19:21:26.123Z,99175.69
2023-09-20T19:23:53.747Z,99173.25
2023-09-20T19:26:20.639Z,99175.69
2023-09-20T19:28:47.290Z,99165.53
2023-09-20T19:31:16.371Z,99166.53
2023-09-20T19:33:43.005Z,99172.75
2023-09-20T19:36:09.829Z,99161.66
2023-09-20T19:38:37.203Z,99168.97
2023-09-20T19:41:05.198Z,99162.13
2023-09-20T19:43:31.510Z,99164.09
2023-09-20T19:46:02.550Z,99165.41
2023-09-20T19:48:30.523Z,99165.69
2023-09-20T19:50:57.130Z,99160.53
2023-09-20T19:53:30.250Z,99153.56
2023-09-20T19:55:59.503Z,99156.63
2023-09-20T19:58:27.651Z,99149.88
2023-09-20T20:00:54.669Z,99155.50
2023-09-20T20:03:21.147Z,99152.81
2023-09-20T20:05:48.885Z,99152.19
2023-09-20T20:08:15.397Z,99147.91
2023-09-20T20:10:41.790Z,99154.50
2023-09-20T20:13:08.521Z,99159.25
2023-09-20T20:15:35.563Z,99156.66
2023-09-20T20:18:03.360Z,99153.25
2023-09-20T20:20:33.615Z,99146.53
2023-09-20T20:23:01.882Z,99156.44
2023-09-20T20:25:39.604Z,99151.16
2023-09-20T20:28:13.110Z,99153.22
2023-09-20T20:30:40.584Z,99159.69
2023-09-20T20:33:07.086Z,99145.75
2023-09-20T20:35:33.875Z,99152.22
2023-09-20T20:38:00.714Z,99144.41
2023-09-20T20:40:27.186Z,99150.00
2023-09-20T20:42:53.754Z,99152.09
2023-09-20T20:45:21.268Z,99147.94
2023-09-20T20:47:50.177Z,99141.94
2023-09-20T20:50:26.257Z,99142.16
2023-09-20T20:52:54.103Z,99138.00
2023-09-20T20:55:23.711Z,99132.75
2023-09-20T20:57:50.953Z,99138.22
2023-09-20T21:00:30.972Z,99125.78
2023-09-20T21:02:59.276Z,99132.13
2023-09-20T21:05:25.873Z,99122.56
2023-09-20T21:07:53.035Z,99120.00
2023-09-20T21:10:20.663Z,99127.44
2023-09-20T21:12:49.480Z,99126.81
2023-09-20T21:15:16.174Z,99121.91
2023-09-20T21:17:43.019Z,99118.47
2023-09-20T21:20:15.345Z,99121.53
2023-09-20T21:22:41.824Z,99111.88
2023-09-20T21:25:08.850Z,99112.22
2023-09-20T21:27:36.630Z,99123.03
2023-09-20T21:30:05.807Z,99108.88
2023-09-20T21:32:32.619Z,99108.63
2023-09-20T21:34:59.380Z,99108.56
2023-09-20T21:37:25.853Z,99109.31
2023-09-20T21:39:52.270Z,99101.56
2023-09-20T21:42:18.718Z,99093.72
2023-09-20T21:44:45.184Z,99097.41
2023-09-20T21:47:11.608Z,99107.16
2023-09-20T21:49:37.997Z,99102.88
2023-09-20T21:52:04.619Z,99097.75
2023-09-20T21:54:30.975Z,99098.09
2023-09-20T21:56:57.294Z,99106.38
2023-09-20T21:59:23.654Z,99108.31
2023-09-20T22:01:50.212Z,99097.91
2023-09-20T22:04:18.387Z,99098.03
2023-09-20T22:06:44.773Z,99098.38
2023-09-20T22:09:11.851Z,99094.19
2023-09-20T22:11:38.227Z,99091.75
2023-09-20T22:14:05.685Z,99101.84
2023-09-20T22:16:32.201Z,99103.25
2023-09-20T22:18:59.152Z,99087.09
2023-09-20T22:21:25.799Z,99103.41
2023-09-20T22:23:52.806Z,99095.69
2023-09-20T22:26:19.180Z,99093.47
2023-09-20T22:28:45.736Z,99097.22
2023-09-20T22:31:19.356Z,99091.09
2023-09-20T22:33:46.175Z,99089.41
2023-09-20T22:36:15.681Z,99084.88
2023-09-20T22:38:44.556Z,99088.41
2023-09-20T22:41:11.491Z,99081.25
2023-09-20T22:43:38.954Z,99078.78
2023-09-20T22:46:06.656Z,99072.56
2023-09-20T22:48:33.664Z,99074.50
2023-09-20T22:51:01.063Z,99080.81
2023-09-20T22:53:27.451Z,99078.47
2023-09-20T22:55:53.846Z,99077.88
2023-09-20T22:58:20.397Z,99070.88
2023-09-20T23:00:48.722Z,99069.38
2023-09-20T23:03:19.401Z,99064.59
2023-09-20T23:05:47.171Z,99066.59
2023-09-20T23:08:19.181Z,99063.41
2023-09-20T23:10:46.569Z,99051.50
2023-09-20T23:13:20.032Z,99055.78
2023-09-20T23:15:46.730Z,99051.63
2023-09-20T23:18:13.462Z,99052.88
2023-09-20T23:20:43.356Z,99048.81
2023-09-20T23:23:11.622Z,99046.59
2023-09-20T23:25:40.330Z,99049.38
2023-09-20T23:28:09.804Z,99050.56
2023-09-20T23:30:45.909Z,99044.44
2023-09-20T23:33:14.972Z,99046.47
2023-09-20T23:35:55.552Z,99042.38
2023-09-20T23:38:24.918Z,99041.00
2023-09-20T23:41:15.727Z,99040.34
2023-09-20T23:43:45.918Z,99046.78
2023-09-20T23:46:12.938Z,99043.34
2023-09-20T23:48:45.565Z,99040.88
2023-09-20T23:51:12.315Z,99042.94
2023-09-20T23:53:45.861Z,99033.50
2023-09-20T23:56:13.408Z,99039.91
2023-09-20T23:58:40.340Z,99034.00
